sensor_id;sensor_type;location;lat;lon;timestamp;pressure;altitude;pressure_sealevel;temperature;humidity
23363;BME280;11853;48.080;11.960;2022-10-16T00:01:37;94885.44;;;14.97;100.00
23363;BME280;11853;48.080;11.960;2022-10-16T00:04:03;94889.31;;;14.94;100.00
23363;BME280;11853;48.080;11.960;2022-10-16T00:06:30;94894.00;;;14.92;100.00
23363;BME280;11853;48.080;11.960;2022-10-16T00:08:56;94896.34;;;14.87;100.00
23363;BME280;11853;48.080;11.960;2022-10-16T00:11:24;94896.72;;;14.84;100.00
23363;BME280;11853;48.080;11.960;2022-10-16T00:13:54;94894.41;;;14.81;100.00
23363;BME280;11853;48.080;11.960;2022-10-16T00:16:20;94897.44;;;14.78;100.00
23363;BME280;11853;48.080;11.960;2022-10-16T00:18:46;94894.28;;;14.74;100.00
23363;BME280;11853;48.080;11.960;2022-10-16T00:21:15;94887.25;;;14.73;100.00
23363;BME280;11853;48.080;11.960;2022-10-16T00:23:40;94892.78;;;14.72;100.00
23363;BME280;11853;48.080;11.960;2022-10-16T00:26:09;94883.28;;;14.69;100.00
23363;BME280;11853;48.080;11.960;2022-10-16T00:28:35;94892.31;;;14.68;100.00
23363;BME280;11853;48.080;11.960;2022-10-16T00:31:09;94898.19;;;14.63;100.00
23363;BME280;11853;48.080;11.960;2022-10-16T00:33:37;94897.53;;;14.61;100.00
23363;BME280;11853;48.080;11.960;2022-10-16T00:36:04;94904.91;;;14.59;100.00
23363;BME280;11853;48.080;11.960;2022-10-16T00:38:30;94902.22;;;14.59;100.00
23363;BME280;11853;48.080;11.960;2022-10-16T00:40:56;94912.25;;;14.57;100.00
23363;BME280;11853;48.080;11.960;2022-10-16T00:43:44;94909.25;;;14.52;100.00
23363;BME280;11853;48.080;11.960;2022-10-16T00:51:16;94895.25;;;14.42;100.00
23363;BME280;11853;48.080;11.960;2022-10-16T00:53:44;94896.94;;;14.43;100.00
23363;BME280;11853;48.080;11.960;2022-10-16T00:56:10;94897.94;;;14.42;100.00
23363;BME280;11853;48.080;11.960;2022-10-16T00:58:36;94901.44;;;14.42;100.00
23363;BME280;11853;48.080;11.960;2022-10-16T01:01:01;94892.94;;;14.39;100.00
23363;BME280;11853;48.080;11.960;2022-10-16T01:03:31;94895.97;;;14.36;100.00
23363;BME280;11853;48.080;11.960;2022-10-16T01:08:44;94896.78;;;14.36;100.00
23363;BME280;11853;48.080;11.960;2022-10-16T01:11:33;94911.34;;;14.34;100.00
23363;BME280;11853;48.080;11.960;2022-10-16T01:14:06;94898.97;;;14.33;100.00
23363;BME280;11853;48.080;11.960;2022-10-16T01:22:13;94897.69;;;14.29;100.00
23363;BME280;11853;48.080;11.960;2022-10-16T01:24:43;94896.00;;;14.28;100.00
23363;BME280;11853;48.080;11.960;2022-10-16T01:32:41;94912.00;;;14.28;100.00
23363;BME280;11853;48.080;11.960;2022-10-16T01:35:12;94907.69;;;14.27;100.00
23363;BME280;11853;48.080;11.960;2022-10-16T01:38:01;94919.38;;;14.26;100.00
23363;BME280;11853;48.080;11.960;2022-10-16T01:40:29;94916.03;;;14.24;100.00
23363;BME280;11853;48.080;11.960;2022-10-16T01:43:19;94925.91;;;14.23;100.00
23363;BME280;11853;48.080;11.960;2022-10-16T01:45:46;94919.22;;;14.19;100.00
23363;BME280;11853;48.080;11.960;2022-10-16T01:48:16;94920.44;;;14.16;100.00
23363;BME280;11853;48.080;11.960;2022-10-16T01:50:44;94921.94;;;14.11;100.00
23363;BME280;11853;48.080;11.960;2022-10-16T01:53:50;94921.09;;;14.10;100.00
23363;BME280;11853;48.080;11.960;2022-10-16T01:56:18;94923.94;;;14.09;100.00
23363;BME280;11853;48.080;11.960;2022-10-16T01:59:12;94922.25;;;14.08;100.00
23363;BME280;11853;48.080;11.960;2022-10-16T02:01:45;94918.13;;;14.05;100.00
23363;BME280;11853;48.080;11.960;2022-10-16T02:04:20;94915.13;;;14.08;100.00
23363;BME280;11853;48.080;11.960;2022-10-16T02:06:47;94930.09;;;14.09;100.00
23363;BME280;11853;48.080;11.960;2022-10-16T02:09:12;94931.28;;;14.07;100.00
23363;BME280;11853;48.080;11.960;2022-10-16T02:11:40;94927.94;;;14.05;100.00
23363;BME280;11853;48.080;11.960;2022-10-16T02:14:07;94930.81;;;14.03;100.00
23363;BME280;11853;48.080;11.960;2022-10-16T02:16:44;94921.31;;;14.01;100.00
23363;BME280;11853;48.080;11.960;2022-10-16T02:19:11;94931.16;;;14.00;100.00
23363;BME280;11853;48.080;11.960;2022-10-16T02:21:44;94926.97;;;13.97;100.00
23363;BME280;11853;48.080;11.960;2022-10-16T02:24:33;94921.16;;;13.94;100.00
23363;BME280;11853;48.080;11.960;2022-10-16T02:27:13;94916.19;;;13.91;100.00
23363;BME280;11853;48.080;11.960;2022-10-16T02:29:45;94912.84;;;13.89;100.00
23363;BME280;11853;48.080;11.960;2022-10-16T02:32:16;94923.50;;;13.89;100.00
23363;BME280;11853;48.080;11.960;2022-10-16T02:34:44;94914.16;;;13.85;100.00
23363;BME280;11853;48.080;11.960;2022-10-16T02:37:10;94919.34;;;13.86;100.00
23363;BME280;11853;48.080;11.960;2022-10-16T02:39:38;94921.19;;;13.86;100.00
23363;BME280;11853;48.080;11.960;2022-10-16T02:42:04;94927.50;;;13.85;100.00
23363;BME280;11853;48.080;11.960;2022-10-16T02:44:29;94929.19;;;13.86;100.00
23363;BME280;11853;48.080;11.960;2022-10-16T02:46:55;94928.34;;;13.85;100.00
23363;BME280;11853;48.080;11.960;2022-10-16T02:49:20;94931.38;;;13.82;100.00
23363;BME280;11853;48.080;11.960;2022-10-16T02:51:46;94923.88;;;13.78;100.00
23363;BME280;11853;48.080;11.960;2022-10-16T02:54:11;94926.69;;;13.76;100.00
23363;BME280;11853;48.080;11.960;2022-10-16T02:56:38;94935.03;;;13.73;100.00
23363;BME280;11853;48.080;11.960;2022-10-16T02:59:04;94939.19;;;13.75;100.00
23363;BME280;11853;48.080;11.960;2022-10-16T03:01:29;94925.38;;;13.72;100.00
23363;BME280;11853;48.080;11.960;2022-10-16T03:03:55;94922.88;;;13.70;100.00
23363;BME280;11853;48.080;11.960;2022-10-16T03:06:20;94921.22;;;13.69;100.00
23363;BME280;11853;48.080;11.960;2022-10-16T03:08:46;94923.53;;;13.72;100.00
23363;BME280;11853;48.080;11.960;2022-10-16T03:11:11;94925.53;;;13.70;100.00
23363;BME280;11853;48.080;11.960;2022-10-16T03:13:37;94929.88;;;13.71;100.00
23363;BME280;11853;48.080;11.960;2022-10-16T03:16:02;94924.56;;;13.71;100.00
23363;BME280;11853;48.080;11.960;2022-10-16T03:18:28;94931.06;;;13.69;100.00
23363;BME280;11853;48.080;11.960;2022-10-16T03:20:53;94936.53;;;13.67;100.00
23363;BME280;11853;48.080;11.960;2022-10-16T03:23:19;94932.56;;;13.63;100.00
23363;BME280;11853;48.080;11.960;2022-10-16T03:25:44;94933.91;;;13.59;100.00
23363;BME280;11853;48.080;11.960;2022-10-16T03:28:10;94933.91;;;13.59;100.00
23363;BME280;11853;48.080;11.960;2022-10-16T03:30:35;94928.59;;;13.59;100.00
23363;BME280;11853;48.080;11.960;2022-10-16T03:33:01;94922.59;;;13.57;100.00
23363;BME280;11853;48.080;11.960;2022-10-16T03:35:26;94924.09;;;13.60;100.00
23363;BME280;11853;48.080;11.960;2022-10-16T03:37:52;94928.88;;;13.64;100.00
23363;BME280;11853;48.080;11.960;2022-10-16T03:40:18;94928.06;;;13.64;100.00
23363;BME280;11853;48.080;11.960;2022-10-16T03:42:44;94936.72;;;13.66;100.00
23363;BME280;11853;48.080;11.960;2022-10-16T03:45:10;94935.72;;;13.67;100.00
23363;BME280;11853;48.080;11.960;2022-10-16T03:47:36;94939.88;;;13.69;100.00
23363;BME280;11853;48.080;11.960;2022-10-16T03:50:02;94945.22;;;13.69;100.00
23363;BME280;11853;48.080;11.960;2022-10-16T03:52:28;94948.06;;;13.68;100.00
23363;BME280;11853;48.080;11.960;2022-10-16T03:54:53;94953.22;;;13.69;100.00
23363;BME280;11853;48.080;11.960;2022-10-16T03:57:19;94950.88;;;13.66;100.00
23363;BME280;11853;48.080;11.960;2022-10-16T03:59:45;94951.22;;;13.63;100.00
23363;BME280;11853;48.080;11.960;2022-10-16T04:02:11;94948.72;;;13.62;100.00
23363;BME280;11853;48.080;11.960;2022-10-16T04:04:36;94955.53;;;13.64;100.00
23363;BME280;11853;48.080;11.960;2022-10-16T04:07:02;94958.06;;;13.66;100.00
23363;BME280;11853;48.080;11.960;2022-10-16T04:09:27;94960.03;;;13.72;100.00
23363;BME280;11853;48.080;11.960;2022-10-16T04:11:53;94962.88;;;13.70;100.00
23363;BME280;11853;48.080;11.960;2022-10-16T04:14:19;94960.19;;;13.70;100.00
23363;BME280;11853;48.080;11.960;2022-10-16T04:16:44;94963.88;;;13.78;100.00
23363;BME280;11853;48.080;11.960;2022-10-16T04:19:10;94960.03;;;13.72;100.00
23363;BME280;11853;48.080;11.960;2022-10-16T04:21:36;94953.69;;;13.73;100.00
23363;BME280;11853;48.080;11.960;2022-10-16T04:24:02;94952.88;;;13.72;100.00
23363;BME280;11853;48.080;11.960;2022-10-16T04:26:28;94955.19;;;13.75;100.00
23363;BME280;11853;48.080;11.960;2022-10-16T04:28:54;94952.19;;;13.70;100.00
23363;BME280;11853;48.080;11.960;2022-10-16T04:31:20;94952.53;;;13.67;100.00
23363;BME280;11853;48.080;11.960;2022-10-16T04:33:46;94957.03;;;13.67;100.00
23363;BME280;11853;48.080;11.960;2022-10-16T04:36:11;94952.88;;;13.64;100.00
23363;BME280;11853;48.080;11.960;2022-10-16T04:38:37;94961.91;;;13.63;100.00
23363;BME280;11853;48.080;11.960;2022-10-16T04:41:05;94951.41;;;13.54;100.00
23363;BME280;11853;48.080;11.960;2022-10-16T04:43:31;94944.88;;;13.56;100.00
23363;BME280;11853;48.080;11.960;2022-10-16T04:45:56;94957.72;;;13.52;100.00
23363;BME280;11853;48.080;11.960;2022-10-16T04:48:22;94965.72;;;13.52;100.00
23363;BME280;11853;48.080;11.960;2022-10-16T04:50:48;94968.25;;;13.54;100.00
23363;BME280;11853;48.080;11.960;2022-10-16T04:53:13;94964.22;;;13.50;100.00
23363;BME280;11853;48.080;11.960;2022-10-16T04:55:40;94956.91;;;13.44;100.00
23363;BME280;11853;48.080;11.960;2022-10-16T04:58:06;94960.91;;;13.48;100.00
23363;BME280;11853;48.080;11.960;2022-10-16T05:00:33;94953.56;;;13.50;100.00
23363;BME280;11853;48.080;11.960;2022-10-16T05:02:58;94947.25;;;13.51;100.00
23363;BME280;11853;48.080;11.960;2022-10-16T05:05:26;94944.41;;;13.52;100.00
23363;BME280;11853;48.080;11.960;2022-10-16T05:07:51;94939.41;;;13.41;100.00
23363;BME280;11853;48.080;11.960;2022-10-16T05:10:17;94948.75;;;13.45;100.00
23363;BME280;11853;48.080;11.960;2022-10-16T05:12:43;94943.09;;;13.57;100.00
23363;BME280;11853;48.080;11.960;2022-10-16T05:15:09;94945.06;;;13.63;100.00
23363;BME280;11853;48.080;11.960;2022-10-16T05:17:35;94939.56;;;13.56;100.00
23363;BME280;11853;48.080;11.960;2022-10-16T05:20:00;94942.75;;;13.60;100.00
23363;BME280;11853;48.080;11.960;2022-10-16T05:22:26;94946.09;;;13.54;100.00
23363;BME280;11853;48.080;11.960;2022-10-16T05:24:51;94946.09;;;13.45;100.00
23363;BME280;11853;48.080;11.960;2022-10-16T05:27:17;94947.59;;;13.48;100.00
23363;BME280;11853;48.080;11.960;2022-10-16T05:29:46;94956.56;;;13.39;100.00
23363;BME280;11853;48.080;11.960;2022-10-16T05:32:13;94958.75;;;13.51;100.00
23363;BME280;11853;48.080;11.960;2022-10-16T05:34:39;94948.25;;;13.42;100.00
23363;BME280;11853;48.080;11.960;2022-10-16T05:37:05;94953.25;;;13.45;100.00
23363;BME280;11853;48.080;11.960;2022-10-16T05:39:30;94952.41;;;13.52;100.00
23363;BME280;11853;48.080;11.960;2022-10-16T05:41:56;94955.72;;;13.71;100.00
23363;BME280;11853;48.080;11.960;2022-10-16T05:44:21;94959.03;;;13.73;100.00
23363;BME280;11853;48.080;11.960;2022-10-16T05:46:47;94963.22;;;13.67;100.00
23363;BME280;11853;48.080;11.960;2022-10-16T05:49:12;94966.06;;;13.58;100.00
23363;BME280;11853;48.080;11.960;2022-10-16T05:51:38;94966.88;;;13.58;100.00
23363;BME280;11853;48.080;11.960;2022-10-16T05:54:03;94974.22;;;13.64;100.00
23363;BME280;11853;48.080;11.960;2022-10-16T05:56:29;94977.69;;;13.73;100.00
23363;BME280;11853;48.080;11.960;2022-10-16T05:58:54;94970.72;;;13.72;100.00
23363;BME280;11853;48.080;11.960;2022-10-16T06:01:20;94967.56;;;13.68;100.00
23363;BME280;11853;48.080;11.960;2022-10-16T06:03:50;94983.03;;;13.73;100.00
23363;BME280;11853;48.080;11.960;2022-10-16T06:06:22;94983.88;;;13.73;100.00
23363;BME280;11853;48.080;11.960;2022-10-16T06:08:49;94985.69;;;13.73;100.00
23363;BME280;11853;48.080;11.960;2022-10-16T06:11:21;94995.19;;;13.84;100.00
23363;BME280;11853;48.080;11.960;2022-10-16T06:13:51;95001.34;;;13.84;100.00
23363;BME280;11853;48.080;11.960;2022-10-16T06:16:17;95010.00;;;13.94;100.00
23363;BME280;11853;48.080;11.960;2022-10-16T06:18:43;95011.31;;;13.98;100.00
23363;BME280;11853;48.080;11.960;2022-10-16T06:21:10;95012.31;;;14.14;100.00
23363;BME280;11853;48.080;11.960;2022-10-16T06:23:36;95008.84;;;14.05;100.00
23363;BME280;11853;48.080;11.960;2022-10-16T06:26:10;95015.84;;;13.98;100.00
23363;BME280;11853;48.080;11.960;2022-10-16T06:28:36;95012.19;;;13.91;100.00
23363;BME280;11853;48.080;11.960;2022-10-16T06:31:04;95016.19;;;13.87;100.00
23363;BME280;11853;48.080;11.960;2022-10-16T06:33:30;95023.69;;;13.91;100.00
23363;BME280;11853;48.080;11.960;2022-10-16T06:38:32;95023.50;;;14.09;100.00
23363;BME280;11853;48.080;11.960;2022-10-16T06:40:58;95029.81;;;14.16;100.00
23363;BME280;11853;48.080;11.960;2022-10-16T06:43:24;95031.94;;;14.29;100.00
23363;BME280;11853;48.080;11.960;2022-10-16T06:45:56;95025.91;;;14.35;100.00
23363;BME280;11853;48.080;11.960;2022-10-16T06:48:23;95023.44;;;14.34;100.00
23363;BME280;11853;48.080;11.960;2022-10-16T06:51:06;95016.97;;;14.68;100.00
23363;BME280;11853;48.080;11.960;2022-10-16T06:53:35;95012.19;;;14.94;100.00
23363;BME280;11853;48.080;11.960;2022-10-16T06:56:30;95028.88;;;14.96;100.00
23363;BME280;11853;48.080;11.960;2022-10-16T06:58:56;95034.22;;;14.96;100.00
23363;BME280;11853;48.080;11.960;2022-10-16T07:01:23;95035.69;;;14.99;100.00
23363;BME280;11853;48.080;11.960;2022-10-16T07:03:49;95048.28;;;14.90;100.00
23363;BME280;11853;48.080;11.960;2022-10-16T07:06:17;95037.97;;;14.79;100.00
23363;BME280;11853;48.080;11.960;2022-10-16T07:08:45;95044.63;;;14.91;100.00
23363;BME280;11853;48.080;11.960;2022-10-16T07:11:13;95043.06;;;14.97;100.00
23363;BME280;11853;48.080;11.960;2022-10-16T07:13:41;95048.22;;;14.98;100.00
23363;BME280;11853;48.080;11.960;2022-10-16T07:16:15;95056.56;;;15.03;100.00
23363;BME280;11853;48.080;11.960;2022-10-16T07:18:41;95063.31;;;14.91;100.00
23363;BME280;11853;48.080;11.960;2022-10-16T07:21:17;95061.56;;;15.06;100.00
23363;BME280;11853;48.080;11.960;2022-10-16T07:23:43;95060.28;;;15.25;100.00
23363;BME280;11853;48.080;11.960;2022-10-16T07:26:09;95073.78;;;15.55;100.00
23363;BME280;11853;48.080;11.960;2022-10-16T07:28:35;95067.81;;;15.76;100.00
23363;BME280;11853;48.080;11.960;2022-10-16T07:31:06;95073.75;;;15.86;100.00
23363;BME280;11853;48.080;11.960;2022-10-16T07:33:33;95068.88;;;15.90;100.00
23363;BME280;11853;48.080;11.960;2022-10-16T07:35:59;95072.09;;;16.08;100.00
23363;BME280;11853;48.080;11.960;2022-10-16T07:38:24;95071.91;;;16.77;100.00
23363;BME280;11853;48.080;11.960;2022-10-16T07:41:01;95077.53;;;17.48;100.00
23363;BME280;11853;48.080;11.960;2022-10-16T07:43:27;95072.19;;;18.13;96.26
23363;BME280;11853;48.080;11.960;2022-10-16T07:45:53;95078.22;;;18.43;92.04
23363;BME280;11853;48.080;11.960;2022-10-16T07:48:21;95088.81;;;18.79;90.11
23363;BME280;11853;48.080;11.960;2022-10-16T07:50:47;95084.06;;;19.23;87.82
23363;BME280;11853;48.080;11.960;2022-10-16T07:53:13;95090.06;;;19.66;84.81
23363;BME280;11853;48.080;11.960;2022-10-16T07:55:39;95095.28;;;19.94;87.23
23363;BME280;11853;48.080;11.960;2022-10-16T07:58:05;95102.78;;;20.19;83.93
23363;BME280;11853;48.080;11.960;2022-10-16T08:00:31;95090.16;;;20.26;83.94
23363;BME280;11853;48.080;11.960;2022-10-16T08:02:58;95096.38;;;20.60;85.08
23363;BME280;11853;48.080;11.960;2022-10-16T08:05:31;95102.59;;;20.27;82.61
23363;BME280;11853;48.080;11.960;2022-10-16T08:07:57;95096.19;;;20.61;79.96
23363;BME280;11853;48.080;11.960;2022-10-16T08:10:24;95099.69;;;20.82;78.41
23363;BME280;11853;48.080;11.960;2022-10-16T08:12:51;95108.00;;;20.74;80.11
23363;BME280;11853;48.080;11.960;2022-10-16T08:15:17;95113.13;;;21.02;82.41
23363;BME280;11853;48.080;11.960;2022-10-16T08:17:43;95111.03;;;21.10;83.12
23363;BME280;11853;48.080;11.960;2022-10-16T08:20:09;95105.78;;;21.42;81.25
23363;BME280;11853;48.080;11.960;2022-10-16T08:22:35;95113.97;;;21.67;80.44
23363;BME280;11853;48.080;11.960;2022-10-16T08:25:00;95117.53;;;21.99;78.21
23363;BME280;11853;48.080;11.960;2022-10-16T08:27:31;95119.94;;;22.14;75.66
23363;BME280;11853;48.080;11.960;2022-10-16T08:29:57;95113.69;;;22.20;75.62
23363;BME280;11853;48.080;11.960;2022-10-16T08:32:22;95115.34;;;22.53;75.98
23363;BME280;11853;48.080;11.960;2022-10-16T08:34:48;95125.00;;;22.67;74.12
23363;BME280;11853;48.080;11.960;2022-10-16T08:37:13;95122.91;;;22.44;73.23
23363;BME280;11853;48.080;11.960;2022-10-16T08:39:39;95119.09;;;22.52;71.77
23363;BME280;11853;48.080;11.960;2022-10-16T08:45:08;95130.72;;;22.78;72.93
23363;BME280;11853;48.080;11.960;2022-10-16T08:47:49;95126.09;;;22.85;72.38
23363;BME280;11853;48.080;11.960;2022-10-16T08:50:24;95130.16;;;23.01;74.36
23363;BME280;11853;48.080;11.960;2022-10-16T08:52:50;95125.00;;;22.92;71.50
23363;BME280;11853;48.080;11.960;2022-10-16T08:55:31;95134.44;;;23.08;73.54
23363;BME280;11853;48.080;11.960;2022-10-16T08:57:59;95130.91;;;23.08;71.83
23363;BME280;11853;48.080;11.960;2022-10-16T09:00:26;95139.03;;;23.26;73.92
23363;BME280;11853;48.080;11.960;2022-10-16T09:03:14;95140.53;;;23.22;69.37
23363;BME280;11853;48.080;11.960;2022-10-16T09:11:58;95147.09;;;23.51;71.14
23363;BME280;11853;48.080;11.960;2022-10-16T09:21:04;95150.13;;;23.61;66.16
23363;BME280;11853;48.080;11.960;2022-10-16T09:23:16;95150.47;;;23.83;67.34
23363;BME280;11853;48.080;11.960;2022-10-16T09:25:48;95159.75;;;23.94;66.52
23363;BME280;11853;48.080;11.960;2022-10-16T09:28:16;95166.50;;;24.03;65.35
23363;BME280;11853;48.080;11.960;2022-10-16T09:30:43;95169.34;;;24.09;65.56
23363;BME280;11853;48.080;11.960;2022-10-16T09:33:10;95175.84;;;24.08;66.13
23363;BME280;11853;48.080;11.960;2022-10-16T09:35:39;95159.06;;;23.99;66.53
23363;BME280;11853;48.080;11.960;2022-10-16T09:38:05;95167.88;;;23.94;67.39
23363;BME280;11853;48.080;11.960;2022-10-16T09:40:37;95170.88;;;23.86;68.28
23363;BME280;11853;48.080;11.960;2022-10-16T09:46:04;95168.53;;;24.38;67.37
23363;BME280;11853;48.080;11.960;2022-10-16T09:48:49;95163.03;;;24.45;66.72
23363;BME280;11853;48.080;11.960;2022-10-16T09:51:34;95159.50;;;24.44;66.82
23363;BME280;11853;48.080;11.960;2022-10-16T09:56:36;95160.19;;;24.82;68.29
23363;BME280;11853;48.080;11.960;2022-10-16T09:59:22;95165.97;;;24.85;66.88
23363;BME280;11853;48.080;11.960;2022-10-16T10:01:54;95171.84;;;24.82;69.21
23363;BME280;11853;48.080;11.960;2022-10-16T10:04:22;95170.44;;;24.80;67.78
23363;BME280;11853;48.080;11.960;2022-10-16T10:06:51;95178.81;;;24.78;70.39
23363;BME280;11853;48.080;11.960;2022-10-16T10:09:31;95177.03;;;24.84;68.58
23363;BME280;11853;48.080;11.960;2022-10-16T10:12:00;95170.72;;;25.02;70.47
23363;BME280;11853;48.080;11.960;2022-10-16T10:14:37;95177.13;;;25.19;67.26
23363;BME280;11853;48.080;11.960;2022-10-16T10:17:19;95179.50;;;25.27;67.94
23363;BME280;11853;48.080;11.960;2022-10-16T10:19:49;95175.47;;;25.30;66.30
23363;BME280;11853;48.080;11.960;2022-10-16T10:22:43;95179.16;;;24.70;65.56
23363;BME280;11853;48.080;11.960;2022-10-16T10:27:51;95179.81;;;24.54;68.10
23363;BME280;11853;48.080;11.960;2022-10-16T10:30:25;95175.09;;;24.61;65.15
23363;BME280;11853;48.080;11.960;2022-10-16T10:39:09;95163.41;;;24.48;65.82
23363;BME280;11853;48.080;11.960;2022-10-16T10:42:02;95161.81;;;24.41;67.69
23363;BME280;11853;48.080;11.960;2022-10-16T11:00:28;95175.03;;;24.79;65.99
23363;BME280;11853;48.080;11.960;2022-10-16T11:03:13;95163.72;;;24.82;63.21
23363;BME280;11853;48.080;11.960;2022-10-16T11:06:11;95170.44;;;24.80;65.00
23363;BME280;11853;48.080;11.960;2022-10-16T11:08:42;95171.97;;;24.76;66.15
23363;BME280;11853;48.080;11.960;2022-10-16T11:16:55;95167.22;;;24.71;63.88
23363;BME280;11853;48.080;11.960;2022-10-16T11:22:21;95170.16;;;24.58;61.67
23363;BME280;11853;48.080;11.960;2022-10-16T11:25:13;95176.22;;;24.41;64.10
23363;BME280;11853;48.080;11.960;2022-10-16T11:30:20;95171.13;;;24.33;64.20
23363;BME280;11853;48.080;11.960;2022-10-16T11:36:03;95167.59;;;24.14;64.34
23363;BME280;11853;48.080;11.960;2022-10-16T11:41:29;95166.78;;;24.14;64.77
23363;BME280;11853;48.080;11.960;2022-10-16T11:44:38;95163.00;;;24.15;64.96
23363;BME280;11853;48.080;11.960;2022-10-16T11:50:03;95155.47;;;24.17;65.14
23363;BME280;11853;48.080;11.960;2022-10-16T11:52:40;95154.56;;;24.23;65.25
23363;BME280;11853;48.080;11.960;2022-10-16T11:55:17;95158.66;;;24.14;63.99
23363;BME280;11853;48.080;11.960;2022-10-16T11:58:05;95159.31;;;24.09;64.19
23363;BME280;11853;48.080;11.960;2022-10-16T12:00:53;95152.38;;;24.01;64.67
23363;BME280;11853;48.080;11.960;2022-10-16T12:03:27;95152.94;;;24.03;64.53
23363;BME280;11853;48.080;11.960;2022-10-16T12:08:25;95154.00;;;24.02;65.60
23363;BME280;11853;48.080;11.960;2022-10-16T12:10:51;95149.34;;;24.10;64.36
23363;BME280;11853;48.080;11.960;2022-10-16T12:13:40;95145.56;;;24.11;65.40
23363;BME280;11853;48.080;11.960;2022-10-16T12:18:44;95140.13;;;24.11;67.84
23363;BME280;11853;48.080;11.960;2022-10-16T12:21:11;95145.56;;;24.11;65.76
23363;BME280;11853;48.080;11.960;2022-10-16T12:23:55;95146.94;;;24.01;66.68
23363;BME280;11853;48.080;11.960;2022-10-16T12:26:38;95147.63;;;23.97;66.09
23363;BME280;11853;48.080;11.960;2022-10-16T12:29:27;95153.66;;;23.99;66.53
23363;BME280;11853;48.080;11.960;2022-10-16T12:31:55;95147.41;;;23.98;68.16
23363;BME280;11853;48.080;11.960;2022-10-16T12:34:40;95147.41;;;23.98;68.69
23363;BME280;11853;48.080;11.960;2022-10-16T12:37:19;95153.41;;;24.00;70.42
23363;BME280;11853;48.080;11.960;2022-10-16T12:39:47;95148.59;;;24.02;69.16
23363;BME280;11853;48.080;11.960;2022-10-16T12:42:31;95154.47;;;23.99;66.59
23363;BME280;11853;48.080;11.960;2022-10-16T12:44:58;95152.22;;;23.96;68.03
23363;BME280;11853;48.080;11.960;2022-10-16T12:49:57;95146.78;;;23.96;68.13
23363;BME280;11853;48.080;11.960;2022-10-16T12:52:45;95148.31;;;23.92;67.23
23363;BME280;11853;48.080;11.960;2022-10-16T12:55:19;95145.31;;;23.82;62.77
23363;BME280;11853;48.080;11.960;2022-10-16T12:58:09;95144.56;;;23.75;65.04
23363;BME280;11853;48.080;11.960;2022-10-16T13:00:45;95146.06;;;23.71;65.76
23363;BME280;11853;48.080;11.960;2022-10-16T13:03:42;95146.72;;;23.66;67.06
23363;BME280;11853;48.080;11.960;2022-10-16T13:07:03;95150.34;;;23.60;67.07
23363;BME280;11853;48.080;11.960;2022-10-16T13:17:52;95153.41;;;23.45;69.18
23363;BME280;11853;48.080;11.960;2022-10-16T13:20:31;95148.09;;;23.38;67.93
23363;BME280;11853;48.080;11.960;2022-10-16T13:23:22;95150.63;;;23.33;67.22
23363;BME280;11853;48.080;11.960;2022-10-16T13:28:21;95147.84;;;23.22;65.89
23363;BME280;11853;48.080;11.960;2022-10-16T13:30:55;95153.72;;;23.19;62.64
23363;BME280;11853;48.080;11.960;2022-10-16T13:35:55;95145.25;;;23.08;60.23
23363;BME280;11853;48.080;11.960;2022-10-16T13:38:24;95155.06;;;23.09;60.79
23363;BME280;11853;48.080;11.960;2022-10-16T13:41:14;95155.91;;;23.03;60.49
23363;BME280;11853;48.080;11.960;2022-10-16T13:43:44;95154.50;;;23.01;62.07
23363;BME280;11853;48.080;11.960;2022-10-16T13:46:18;95158.50;;;22.98;62.45
23363;BME280;11853;48.080;11.960;2022-10-16T13:48:55;95159.75;;;22.96;62.36
23363;BME280;11853;48.080;11.960;2022-10-16T13:51:21;95164.72;;;22.99;64.34
23363;BME280;11853;48.080;11.960;2022-10-16T13:53:47;95156.38;;;23.00;67.05
23363;BME280;11853;48.080;11.960;2022-10-16T13:56:15;95155.09;;;23.03;67.34
23363;BME280;11853;48.080;11.960;2022-10-16T13:58:41;95166.47;;;23.11;68.07
23363;BME280;11853;48.080;11.960;2022-10-16T14:01:19;95165.97;;;23.21;67.54
23363;BME280;11853;48.080;11.960;2022-10-16T14:03:48;95165.00;;;23.15;69.25
23363;BME280;11853;48.080;11.960;2022-10-16T14:06:19;95168.72;;;23.14;69.44
23363;BME280;11853;48.080;11.960;2022-10-16T14:09:25;95160.69;;;23.08;70.14
23363;BME280;11853;48.080;11.960;2022-10-16T14:11:53;95170.97;;;22.99;70.97
23363;BME280;11853;48.080;11.960;2022-10-16T14:14:19;95171.59;;;22.94;71.27
23363;BME280;11853;48.080;11.960;2022-10-16T14:16:45;95178.13;;;22.87;72.30
23363;BME280;11853;48.080;11.960;2022-10-16T14:19:30;95176.00;;;22.89;71.69
23363;BME280;11853;48.080;11.960;2022-10-16T14:21:58;95172.25;;;22.90;72.41
23363;BME280;11853;48.080;11.960;2022-10-16T14:26:56;95181.03;;;22.85;71.16
23363;BME280;11853;48.080;11.960;2022-10-16T14:29:24;95175.69;;;22.79;71.24
23363;BME280;11853;48.080;11.960;2022-10-16T14:31:58;95169.72;;;22.70;71.10
23363;BME280;11853;48.080;11.960;2022-10-16T14:34:29;95173.16;;;22.84;71.01
23363;BME280;11853;48.080;11.960;2022-10-16T14:36:56;95171.72;;;22.81;69.78
23363;BME280;11853;48.080;11.960;2022-10-16T14:39:23;95188.59;;;22.77;70.06
23363;BME280;11853;48.080;11.960;2022-10-16T14:41:55;95180.47;;;22.77;68.58
23363;BME280;11853;48.080;11.960;2022-10-16T14:44:29;95178.00;;;22.75;67.93
23363;BME280;11853;48.080;11.960;2022-10-16T14:46:57;95175.78;;;22.65;69.95
23363;BME280;11853;48.080;11.960;2022-10-16T14:49:23;95179.09;;;22.67;70.55
23363;BME280;11853;48.080;11.960;2022-10-16T14:51:49;95172.47;;;22.63;70.91
23363;BME280;11853;48.080;11.960;2022-10-16T14:54:17;95180.38;;;22.65;71.16